Time;durP1;ratioP1;P1;durP2;ratioP2;P2;SDS_P1;SDS_P2;PMS_P1;PMS_P2;Temp;Humidity;BMP_temperature;BMP_pressure;BME280_temperature;BME280_humidity;BME280_pressure;Samples;Min_cycle;Max_cycle;Signal;HPM_P1;HPM_P2
2023/05/31 00:00:45;;;;;;;12.70;11.30;;;15.30;99.90;;;;;;4954477;28;20257;-64
2023/05/31 00:03:11;;;;;;;17.47;12.37;;;15.10;99.90;;;;;;4944079;28;21023;-64
2023/05/31 00:05:37;;;;;;;11.63;10.43;;;15.00;99.90;;;;;;4942564;29;20297;-64
2023/05/31 00:08:03;;;;;;;13.57;11.47;;;15.10;99.90;;;;;;4953399;28;20276;-64
2023/05/31 00:10:28;;;;;;;14.97;12.53;;;15.10;99.90;;;;;;4954307;28;20271;-64
2023/05/31 00:12:55;;;;;;;14.23;11.90;;;15.20;99.90;;;;;;4954290;29;20594;-64
2023/05/31 00:15:20;;;;;;;13.97;11.53;;;15.10;99.90;;;;;;4946536;29;20191;-64
2023/05/31 00:17:46;;;;;;;14.53;10.77;;;15.10;99.90;;;;;;4940677;28;20900;-56
2023/05/31 00:20:12;;;;;;;14.00;11.63;;;15.20;99.90;;;;;;4934924;29;20621;-57
2023/05/31 00:22:38;;;;;;;13.13;11.10;;;15.20;99.90;;;;;;4935321;29;20188;-57
2023/05/31 00:25:04;;;;;;;15.43;11.40;;;15.30;99.90;;;;;;4937168;29;20219;-59
2023/05/31 00:27:30;;;;;;;14.27;11.60;;;15.20;99.90;;;;;;4943151;29;20183;-59
2023/05/31 00:29:55;;;;;;;15.97;11.90;;;15.20;99.90;;;;;;4942031;29;20417;-59
2023/05/31 00:32:21;;;;;;;12.87;11.53;;;15.30;99.90;;;;;;4945158;29;20203;-59
2023/05/31 00:34:47;;;;;;;14.50;11.63;;;15.30;99.90;;;;;;4951899;29;20427;-58
2023/05/31 00:37:13;;;;;;;16.00;11.80;;;15.40;99.90;;;;;;4941347;28;20174;-58
2023/05/31 00:39:38;;;;;;;12.67;10.80;;;15.40;99.90;;;;;;4952431;28;20172;-59
2023/05/31 00:42:04;;;;;;;12.53;11.20;;;15.20;99.90;;;;;;4948839;29;20486;-59
2023/05/31 00:44:30;;;;;;;14.70;11.00;;;15.10;99.90;;;;;;4950863;29;20258;-58
2023/05/31 00:46:56;;;;;;;14.90;11.53;;;15.10;99.90;;;;;;4943472;29;20510;-59
2023/05/31 00:49:22;;;;;;;12.90;10.87;;;15.20;99.90;;;;;;4950686;28;20191;-58
2023/05/31 00:51:48;;;;;;;14.30;11.37;;;15.20;99.90;;;;;;4958017;28;20408;-58
2023/05/31 00:54:14;;;;;;;12.87;10.60;;;15.30;99.90;;;;;;4957384;28;20183;-59
2023/05/31 00:56:40;;;;;;;13.70;10.57;;;15.30;99.90;;;;;;4957901;28;20257;-58
2023/05/31 00:59:05;;;;;;;12.00;10.80;;;15.40;99.90;;;;;;4957260;28;20515;-59
2023/05/31 01:01:34;;;;;;;13.47;11.03;;;15.40;99.90;;;;;;4957832;28;20471;-58
2023/05/31 01:04:01;;;;;;;13.30;11.07;;;15.40;99.90;;;;;;4957172;28;20262;-58
2023/05/31 01:06:31;;;;;;;12.03;10.80;;;15.40;99.90;;;;;;4972430;28;20472;-58
2023/05/31 01:09:07;;;;;;;14.20;11.43;;;15.30;99.90;;;;;;4957234;28;20439;-58
2023/05/31 01:11:33;;;;;;;14.30;11.67;;;15.30;99.90;;;;;;4957381;28;20875;-59
2023/05/31 01:14:04;;;;;;;12.73;10.47;;;15.30;99.90;;;;;;4957099;29;20426;-58
2023/05/31 01:16:38;;;;;;;14.03;10.73;;;15.30;99.90;;;;;;4957217;28;20237;-59
2023/05/31 01:19:07;;;;;;;10.97;9.87;;;15.30;99.90;;;;;;4955703;29;20415;-59
2023/05/31 01:21:43;;;;;;;11.20;10.10;;;15.20;99.90;;;;;;4957497;28;20409;-59
2023/05/31 01:24:27;;;;;;;13.37;9.60;;;15.20;99.90;;;;;;4956927;28;20494;-58
2023/05/31 01:26:58;;;;;;;11.77;9.97;;;15.10;99.90;;;;;;4957147;29;20443;-58
2023/05/31 01:29:27;;;;;;;12.33;10.87;;;15.00;99.90;;;;;;4957645;29;20493;-59
2023/05/31 01:31:54;;;;;;;10.63;9.43;;;15.00;99.90;;;;;;4957288;28;20462;-58
2023/05/31 01:34:20;;;;;;;9.83;8.93;;;15.10;99.90;;;;;;4955795;29;20415;-58
2023/05/31 01:36:46;;;;;;;11.17;9.60;;;15.10;99.90;;;;;;4957008;29;20905;-58
2023/05/31 01:39:13;;;;;;;10.53;9.43;;;15.10;99.90;;;;;;4956588;28;20175;-59
2023/05/31 01:41:40;;;;;;;10.53;9.53;;;15.20;99.90;;;;;;4956933;29;20172;-59
2023/05/31 01:44:07;;;;;;;11.30;10.10;;;15.10;99.90;;;;;;4956507;29;20445;-58
2023/05/31 01:46:32;;;;;;;12.70;10.53;;;15.00;99.90;;;;;;4956992;28;20465;-59
2023/05/31 01:48:59;;;;;;;12.70;11.40;;;14.90;99.90;;;;;;4956208;28;20903;-59
2023/05/31 01:51:26;;;;;;;12.57;10.80;;;14.90;99.90;;;;;;4956379;28;20172;-58
2023/05/31 01:53:52;;;;;;;11.17;9.97;;;14.90;99.90;;;;;;4956837;29;20416;-58
2023/05/31 01:56:20;;;;;;;16.50;11.03;;;14.90;99.90;;;;;;4956183;29;20814;-58
2023/05/31 01:58:48;;;;;;;10.83;9.73;;;14.90;99.90;;;;;;4956909;28;20179;-58
2023/05/31 02:01:16;;;;;;;13.03;10.00;;;14.80;99.90;;;;;;4956159;29;20489;-58
2023/05/31 02:03:42;;;;;;;11.47;10.30;;;14.80;99.90;;;;;;4956731;28;20418;-59
2023/05/31 02:06:12;;;;;;;10.87;9.77;;;14.80;99.90;;;;;;4955974;28;20455;-59
2023/05/31 02:08:38;;;;;;;11.23;9.70;;;14.80;99.90;;;;;;4956632;28;20912;-58
2023/05/31 02:11:04;;;;;;;10.93;9.80;;;14.80;99.90;;;;;;4955735;28;20404;-58
2023/05/31 02:13:30;;;;;;;14.50;11.00;;;14.90;99.90;;;;;;4956750;29;20429;-58
2023/05/31 02:15:57;;;;;;;11.33;10.10;;;14.90;99.90;;;;;;4956602;28;20187;-58
2023/05/31 02:18:26;;;;;;;12.47;9.63;;;14.90;99.90;;;;;;4955782;29;20935;-58
2023/05/31 02:20:53;;;;;;;12.43;9.20;;;14.90;99.90;;;;;;4956419;28;20402;-59
2023/05/31 02:23:19;;;;;;;11.13;9.90;;;14.90;99.90;;;;;;4955820;28;20407;-58
2023/05/31 02:25:50;;;;;;;10.80;9.80;;;15.00;99.90;;;;;;4956193;29;20487;-59
2023/05/31 02:28:16;;;;;;;11.37;10.17;;;15.00;99.90;;;;;;4955647;28;20437;-58
2023/05/31 02:30:54;;;;;;;10.33;9.37;;;15.00;99.90;;;;;;4956193;28;20463;-58
2023/05/31 02:33:20;;;;;;;9.80;8.90;;;15.00;99.90;;;;;;4955942;28;20402;-59
2023/05/31 02:35:45;;;;;;;17.63;9.60;;;14.90;99.90;;;;;;4956192;28;20402;-59
2023/05/31 02:38:11;;;;;;;11.00;9.90;;;14.90;99.90;;;;;;4955577;28;20809;-58
2023/05/31 02:40:37;;;;;;;9.80;8.80;;;14.90;99.90;;;;;;4956045;28;20176;-59
2023/05/31 02:43:03;;;;;;;11.33;10.07;;;14.90;99.90;;;;;;4955708;29;20222;-59
2023/05/31 02:45:28;;;;;;;11.77;10.00;;;14.80;99.90;;;;;;4955808;29;20206;-59
2023/05/31 02:47:54;;;;;;;12.37;11.07;;;14.80;99.90;;;;;;4955915;28;20409;-59
2023/05/31 02:50:20;;;;;;;11.40;10.23;;;14.80;99.90;;;;;;4954957;28;20164;-58
2023/05/31 02:52:46;;;;;;;10.47;9.40;;;14.80;99.90;;;;;;4955499;29;20184;-59
2023/05/31 02:55:12;;;;;;;13.53;9.90;;;14.80;99.90;;;;;;4955218;28;20229;-59
2023/05/31 02:57:37;;;;;;;11.83;10.60;;;14.70;99.90;;;;;;4955407;29;20439;-59
2023/05/31 03:00:10;;;;;;;11.97;10.77;;;14.70;99.90;;;;;;4955335;28;20171;-59
2023/05/31 03:02:37;;;;;;;10.33;9.40;;;14.70;99.90;;;;;;4955318;28;20198;-59
2023/05/31 03:05:04;;;;;;;10.43;9.43;;;14.70;99.90;;;;;;4955319;29;20411;-59
2023/05/31 03:07:30;;;;;;;12.20;10.10;;;14.60;99.90;;;;;;4955822;28;20412;-59
2023/05/31 03:09:56;;;;;;;10.00;8.90;;;14.60;99.90;;;;;;4955527;28;20458;-59
2023/05/31 03:12:22;;;;;;;12.50;11.03;;;14.60;99.90;;;;;;4954729;29;20520;-59
2023/05/31 03:14:47;;;;;;;10.63;9.57;;;14.60;99.90;;;;;;4955576;28;20175;-58
2023/05/31 03:17:13;;;;;;;10.77;9.77;;;14.50;99.90;;;;;;4955074;29;20619;-58
2023/05/31 03:19:39;;;;;;;11.63;8.70;;;14.50;99.90;;;;;;4955355;28;20170;-58
2023/05/31 03:22:05;;;;;;;10.20;9.30;;;14.50;99.90;;;;;;4955054;28;20265;-59
2023/05/31 03:24:31;;;;;;;11.23;10.10;;;14.50;99.90;;;;;;4955244;29;20542;-59
2023/05/31 03:26:57;;;;;;;11.77;10.57;;;14.40;99.90;;;;;;4955082;29;20452;-59
2023/05/31 03:29:23;;;;;;;11.63;10.43;;;14.40;99.90;;;;;;4954658;29;20409;-59
2023/05/31 03:31:49;;;;;;;12.23;10.87;;;14.40;99.90;;;;;;4955134;28;20630;-58
2023/05/31 03:34:15;;;;;;;11.90;10.00;;;14.40;99.90;;;;;;4954774;28;20206;-59
2023/05/31 03:36:41;;;;;;;10.97;9.83;;;14.40;99.90;;;;;;4955173;28;20169;-59
2023/05/31 03:39:07;;;;;;;13.20;11.90;;;14.40;99.90;;;;;;4954711;29;20502;-59
2023/05/31 03:41:33;;;;;;;13.40;12.20;;;14.40;99.90;;;;;;4955190;29;20497;-59
2023/05/31 03:43:58;;;;;;;12.60;11.40;;;14.40;99.90;;;;;;4954871;29;20233;-59
2023/05/31 03:46:24;;;;;;;13.30;11.90;;;14.40;99.90;;;;;;4954466;28;20297;-59
2023/05/31 03:48:50;;;;;;;15.93;14.43;;;14.40;99.90;;;;;;4954887;28;20171;-59
2023/05/31 03:51:16;;;;;;;16.87;12.47;;;14.40;99.90;;;;;;4954286;29;20464;-59
2023/05/31 03:53:42;;;;;;;12.90;11.10;;;14.30;99.90;;;;;;4954807;28;20176;-59
2023/05/31 03:56:08;;;;;;;14.33;12.83;;;14.40;99.90;;;;;;4954640;28;20458;-58
2023/05/31 03:58:33;;;;;;;12.97;11.60;;;14.40;99.90;;;;;;4954535;29;20170;-59
2023/05/31 04:00:59;;;;;;;13.30;12.00;;;14.40;99.90;;;;;;4954579;29;20231;-59
2023/05/31 04:03:25;;;;;;;13.93;11.93;;;14.40;99.90;;;;;;4953788;29;20612;-58
2023/05/31 04:05:50;;;;;;;13.70;10.47;;;14.40;99.90;;;;;;4954597;29;20193;-58
2023/05/31 04:08:16;;;;;;;17.73;13.87;;;14.40;99.90;;;;;;4954031;29;20639;-59
2023/05/31 04:10:42;;;;;;;13.50;12.07;;;14.40;99.90;;;;;;4953978;28;20177;-59
2023/05/31 04:13:08;;;;;;;14.67;11.80;;;14.40;99.90;;;;;;4954200;28;20405;-58
2023/05/31 04:15:35;;;;;;;15.00;11.23;;;14.40;99.90;;;;;;4954755;28;20181;-59
2023/05/31 04:18:01;;;;;;;12.40;11.10;;;14.40;99.90;;;;;;4954564;28;20414;-59
2023/05/31 04:20:27;;;;;;;14.00;12.70;;;14.40;99.90;;;;;;4954023;28;20890;-59
2023/05/31 04:22:53;;;;;;;13.60;10.00;;;14.40;99.90;;;;;;4954545;28;20414;-59
2023/05/31 04:25:19;;;;;;;17.97;16.17;;;14.40;99.90;;;;;;4952634;28;20414;-59
2023/05/31 04:27:46;;;;;;;15.07;13.63;;;14.50;99.90;;;;;;4954762;28;20175;-58
2023/05/31 04:30:12;;;;;;;14.17;11.30;;;14.50;99.90;;;;;;4953885;28;20394;-59
2023/05/31 04:32:39;;;;;;;19.43;13.83;;;14.40;99.90;;;;;;4954427;29;20406;-58
2023/05/31 04:35:06;;;;;;;13.83;12.43;;;14.40;99.90;;;;;;4954406;28;20398;-58
2023/05/31 04:37:32;;;;;;;16.20;14.67;;;14.40;99.90;;;;;;4953854;28;20405;-58
2023/05/31 04:39:59;;;;;;;18.63;12.70;;;14.30;99.90;;;;;;4954503;28;20414;-58
2023/05/31 04:42:28;;;;;;;18.10;12.33;;;14.20;99.90;;;;;;4953948;28;20911;-58
2023/05/31 04:44:57;;;;;;;14.90;13.40;;;14.30;99.90;;;;;;4954346;28;20433;-58
2023/05/31 04:47:28;;;;;;;14.27;12.50;;;14.30;99.90;;;;;;4968497;28;20448;-59
2023/05/31 04:49:57;;;;;;;14.40;12.60;;;14.30;99.90;;;;;;4954311;28;20476;-58
2023/05/31 04:52:28;;;;;;;14.37;12.97;;;14.20;99.90;;;;;;4953995;28;20418;-58
2023/05/31 04:54:55;;;;;;;15.03;13.37;;;14.20;99.90;;;;;;4954248;28;20812;-58
2023/05/31 04:57:22;;;;;;;11.00;9.83;;;14.30;99.90;;;;;;4953619;28;20435;-59
2023/05/31 04:59:48;;;;;;;17.23;15.53;;;14.40;99.90;;;;;;4953628;29;20397;-58
2023/05/31 05:02:14;;;;;;;16.30;13.33;;;14.40;99.90;;;;;;4953632;28;20499;-58
2023/05/31 05:04:40;;;;;;;16.23;12.40;;;14.40;99.90;;;;;;4954000;28;20406;-59
2023/05/31 05:07:06;;;;;;;14.70;12.43;;;14.40;99.90;;;;;;4954086;28;20456;-58
2023/05/31 05:09:33;;;;;;;17.37;12.20;;;14.50;99.90;;;;;;4953303;28;20448;-59
2023/05/31 05:11:58;;;;;;;14.10;12.37;;;14.50;99.90;;;;;;4953841;29;20464;-59
2023/05/31 05:14:24;;;;;;;14.97;12.67;;;14.50;99.90;;;;;;4952331;29;20410;-59
2023/05/31 05:16:50;;;;;;;17.07;14.50;;;14.60;99.90;;;;;;4954393;28;20188;-58
2023/05/31 05:19:15;;;;;;;16.03;12.57;;;14.60;99.90;;;;;;4952337;29;20209;-59
2023/05/31 05:21:41;;;;;;;15.33;11.50;;;14.50;99.90;;;;;;4952774;28;20177;-58
2023/05/31 05:24:07;;;;;;;19.77;14.97;;;14.50;99.90;;;;;;4957688;29;20193;-58
2023/05/31 05:26:33;;;;;;;15.10;12.43;;;14.50;99.90;;;;;;4956867;28;20249;-58
2023/05/31 05:28:59;;;;;;;13.67;11.70;;;14.60;99.90;;;;;;4957153;29;20203;-58
2023/05/31 05:31:25;;;;;;;15.53;11.47;;;14.60;99.90;;;;;;4954779;29;20450;-58
2023/05/31 05:33:50;;;;;;;14.33;12.77;;;14.60;99.90;;;;;;4957051;28;20901;-58
2023/05/31 05:36:16;;;;;;;15.57;11.20;;;14.60;99.90;;;;;;4956569;29;20186;-59
2023/05/31 05:38:42;;;;;;;13.50;11.00;;;14.60;99.90;;;;;;4957069;29;20195;-58
2023/05/31 05:41:12;;;;;;;15.20;12.60;;;14.50;99.90;;;;;;4957206;28;20248;-59
2023/05/31 05:43:38;;;;;;;13.80;12.40;;;14.50;99.90;;;;;;4955886;28;20273;-58
2023/05/31 05:46:04;;;;;;;13.10;11.80;;;14.50;99.90;;;;;;4955453;29;20465;-58
2023/05/31 05:48:30;;;;;;;15.23;13.60;;;14.50;99.90;;;;;;4956389;28;20556;-59
2023/05/31 05:50:56;;;;;;;14.13;12.47;;;14.40;99.90;;;;;;4956769;29;20182;-58
2023/05/31 05:53:21;;;;;;;13.50;11.73;;;14.40;99.90;;;;;;4956174;29;20631;-58
2023/05/31 05:55:55;;;;;;;13.47;11.70;;;14.50;99.90;;;;;;4956501;29;20183;-59
2023/05/31 05:58:21;;;;;;;15.57;11.83;;;14.60;99.90;;;;;;4956250;29;20341;-58
2023/05/31 06:00:47;;;;;;;14.20;11.40;;;14.60;99.90;;;;;;4956690;29;20965;-59
2023/05/31 06:03:16;;;;;;;13.10;11.73;;;14.70;99.90;;;;;;4957034;28;20211;-57
2023/05/31 06:05:42;;;;;;;14.70;11.70;;;14.90;99.90;;;;;;4956444;29;20955;-59
2023/05/31 06:08:10;;;;;;;13.40;11.97;;;15.00;99.90;;;;;;4956606;29;20418;-58
2023/05/31 06:10:35;;;;;;;15.07;12.00;;;15.20;99.90;;;;;;4955989;28;20834;-58
2023/05/31 06:13:01;;;;;;;15.03;13.10;;;15.30;99.90;;;;;;4956716;29;20452;-59
2023/05/31 06:15:27;;;;;;;13.20;11.80;;;15.40;99.90;;;;;;4955861;29;20526;-59
2023/05/31 06:17:53;;;;;;;13.20;11.53;;;15.40;99.90;;;;;;4956361;29;20223;-58
2023/05/31 06:20:18;;;;;;;13.17;11.97;;;15.30;99.90;;;;;;4955797;29;20172;-58
2023/05/31 06:22:44;;;;;;;16.13;12.70;;;15.40;99.90;;;;;;4956147;29;20376;-58
2023/05/31 06:25:10;;;;;;;11.97;10.30;;;15.40;99.90;;;;;;4956528;28;20208;-59
2023/05/31 06:27:36;;;;;;;12.53;11.33;;;15.50;99.90;;;;;;4955930;29;21079;-59
2023/05/31 06:30:02;;;;;;;11.33;10.23;;;15.60;99.90;;;;;;4956268;29;20592;-59
2023/05/31 06:32:28;;;;;;;13.20;10.40;;;15.80;99.90;;;;;;4955559;29;20173;-59
2023/05/31 06:34:54;;;;;;;14.80;12.47;;;15.80;99.90;;;;;;4955335;28;20444;-59
2023/05/31 06:37:21;;;;;;;11.77;10.43;;;15.90;99.90;;;;;;4955405;29;20456;-58
2023/05/31 06:39:48;;;;;;;11.33;10.07;;;16.00;99.90;;;;;;4955989;28;20177;-59
2023/05/31 06:42:14;;;;;;;9.80;8.30;;;16.00;99.90;;;;;;4955948;28;20397;-58
2023/05/31 06:44:43;;;;;;;10.83;9.57;;;16.00;99.90;;;;;;4954866;28;20975;-58
2023/05/31 06:47:09;;;;;;;11.50;10.23;;;16.10;99.90;;;;;;4955714;28;20460;-59
2023/05/31 06:49:35;;;;;;;12.10;10.80;;;16.20;99.90;;;;;;4955053;29;20467;-58
2023/05/31 06:52:02;;;;;;;11.80;10.60;;;16.10;99.90;;;;;;4955332;29;21003;-59
2023/05/31 06:54:28;;;;;;;9.80;8.57;;;16.30;99.90;;;;;;4955056;29;20428;-59
2023/05/31 06:56:54;;;;;;;13.23;11.53;;;16.40;99.90;;;;;;4955706;28;20420;-59
2023/05/31 06:59:20;;;;;;;10.40;9.30;;;16.50;99.90;;;;;;4955149;28;20203;-59
2023/05/31 07:01:46;;;;;;;15.53;11.90;;;16.50;99.90;;;;;;4955845;28;20437;-58
2023/05/31 07:04:12;;;;;;;10.83;9.00;;;16.70;99.90;;;;;;4955489;29;20431;-59
2023/05/31 07:06:38;;;;;;;10.80;9.20;;;16.80;99.90;;;;;;4954823;28;20547;-59
2023/05/31 07:09:04;;;;;;;12.33;9.87;;;16.80;99.90;;;;;;4955425;29;20181;-59
2023/05/31 07:11:30;;;;;;;11.30;9.03;;;16.90;99.90;;;;;;4954917;28;20197;-59
2023/05/31 07:14:01;;;;;;;12.30;9.80;;;17.00;99.90;;;;;;4955588;29;20420;-59
2023/05/31 07:16:27;;;;;;;11.03;9.93;;;17.20;99.90;;;;;;4954795;28;20408;-59
2023/05/31 07:18:54;;;;;;;11.93;10.70;;;17.30;99.90;;;;;;4955243;28;20429;-59
2023/05/31 07:21:20;;;;;;;13.07;11.87;;;17.50;99.90;;;;;;4954948;29;20467;-59
2023/05/31 07:23:45;;;;;;;11.90;9.90;;;17.70;99.90;;;;;;4955228;28;20411;-59
2023/05/31 07:26:11;;;;;;;9.93;8.80;;;17.90;99.90;;;;;;4955116;29;20848;-59
2023/05/31 07:28:37;;;;;;;11.43;10.23;;;18.10;99.90;;;;;;4954550;28;20216;-59
2023/05/31 07:31:03;;;;;;;11.57;9.00;;;18.30;99.90;;;;;;4955035;29;20626;-59
2023/05/31 07:33:29;;;;;;;13.23;9.70;;;18.50;99.90;;;;;;4954521;29;20188;-59
2023/05/31 07:35:57;;;;;;;11.60;9.77;;;18.70;99.90;;;;;;4954741;28;20971;-59
2023/05/31 07:38:23;;;;;;;11.27;10.27;;;18.80;99.90;;;;;;4954498;28;20512;-59
2023/05/31 07:40:49;;;;;;;11.00;10.00;;;19.00;99.90;;;;;;4954844;29;20925;-59
2023/05/31 07:43:15;;;;;;;9.90;9.00;;;19.10;99.90;;;;;;4954746;29;20584;-59
2023/05/31 07:45:41;;;;;;;10.43;9.53;;;19.20;99.90;;;;;;4953330;28;20438;-59
2023/05/31 07:48:07;;;;;;;9.83;9.03;;;19.40;99.90;;;;;;4954827;28;20431;-59
2023/05/31 07:50:33;;;;;;;12.00;9.30;;;19.50;99.90;;;;;;4954507;28;20223;-59
2023/05/31 07:52:58;;;;;;;10.30;9.30;;;19.80;99.90;;;;;;4954358;29;20512;-59
2023/05/31 07:55:25;;;;;;;10.30;9.40;;;19.90;99.90;;;;;;4969339;28;20252;-59
2023/05/31 07:57:50;;;;;;;10.53;9.40;;;20.10;99.90;;;;;;4954726;28;20289;-59
2023/05/31 08:00:17;;;;;;;9.17;8.30;;;20.20;99.90;;;;;;4955025;28;20507;-59
2023/05/31 08:02:43;;;;;;;11.37;10.00;;;20.30;99.90;;;;;;4954049;28;20173;-59
2023/05/31 08:05:09;;;;;;;12.73;11.50;;;20.40;99.90;;;;;;4954991;29;20420;-59
2023/05/31 08:07:35;;;;;;;9.23;7.70;;;20.50;99.90;;;;;;4953932;28;20216;-58
2023/05/31 08:10:01;;;;;;;10.50;9.57;;;20.60;99.80;;;;;;4954602;28;20409;-59
2023/05/31 08:12:27;;;;;;;9.70;8.80;;;20.70;99.90;;;;;;4953695;29;20483;-59
2023/05/31 08:14:53;;;;;;;10.80;9.73;;;20.90;99.90;;;;;;4954751;28;20536;-59
2023/05/31 08:17:19;;;;;;;9.63;8.53;;;21.00;99.60;;;;;;4954375;28;20416;-59
2023/05/31 08:19:44;;;;;;;12.10;8.90;;;21.10;98.30;;;;;;4953620;29;20184;-59
2023/05/31 08:22:10;;;;;;;9.60;8.10;;;21.30;97.70;;;;;;4954461;29;20173;-59
2023/05/31 08:24:36;;;;;;;9.20;8.30;;;21.40;97.70;;;;;;4953849;28;20181;-59
2023/05/31 08:27:02;;;;;;;9.50;8.67;;;21.60;97.30;;;;;;4954461;29;20212;-59
2023/05/31 08:29:28;;;;;;;9.60;8.70;;;21.70;96.80;;;;;;4953445;29;20181;-59
2023/05/31 08:31:53;;;;;;;9.60;8.40;;;21.90;96.90;;;;;;4954337;28;20536;-59
2023/05/31 08:34:19;;;;;;;8.97;8.17;;;22.00;95.00;;;;;;4954431;28;20416;-59
2023/05/31 08:36:47;;;;;;;10.30;9.30;;;21.90;94.40;;;;;;4953996;29;20181;-59
2023/05/31 08:39:13;;;;;;;9.00;8.10;;;21.90;94.90;;;;;;4954251;28;20521;-59
2023/05/31 08:41:58;;;;;;;9.23;8.30;;;22.00;94.60;;;;;;4953494;28;20409;-59
2023/05/31 08:44:24;;;;;;;10.67;8.73;;;22.10;93.90;;;;;;4954334;29;20468;-59
2023/05/31 08:46:49;;;;;;;8.50;7.70;;;22.10;95.60;;;;;;4953447;28;20486;-59
2023/05/31 08:49:16;;;;;;;8.97;8.17;;;22.20;93.10;;;;;;4954284;28;20400;-59
2023/05/31 08:51:47;;;;;;;8.73;7.93;;;22.30;93.80;;;;;;4953420;28;20184;-59
2023/05/31 08:54:13;;;;;;;9.03;8.20;;;22.30;92.50;;;;;;4969086;28;20445;-59
2023/05/31 08:56:40;;;;;;;8.03;7.20;;;22.20;92.60;;;;;;4952511;28;20496;-59
2023/05/31 08:59:11;;;;;;;9.20;8.30;;;22.30;91.20;;;;;;4957859;28;20404;-59
2023/05/31 09:01:38;;;;;;;9.87;8.83;;;22.30;92.10;;;;;;4957201;28;20459;-59
2023/05/31 09:04:07;;;;;;;8.93;8.00;;;22.50;93.50;;;;;;4957864;28;20412;-59
2023/05/31 09:06:34;;;;;;;6.97;6.20;;;22.70;92.20;;;;;;4956801;28;20463;-59
2023/05/31 09:09:00;;;;;;;8.07;7.27;;;22.80;91.60;;;;;;4957846;29;20428;-59
2023/05/31 09:11:27;;;;;;;8.03;7.30;;;23.00;91.80;;;;;;4957534;29;20761;-59
2023/05/31 09:13:53;;;;;;;7.60;7.00;;;23.20;90.30;;;;;;4957807;28;20463;-59
2023/05/31 09:16:24;;;;;;;8.77;7.27;;;23.30;91.40;;;;;;4957559;28;20864;-59
2023/05/31 09:19:01;;;;;;;9.83;9.03;;;23.50;91.30;;;;;;4957045;28;20405;-59
2023/05/31 09:21:27;;;;;;;7.80;7.10;;;23.60;90.30;;;;;;4957639;28;20420;-59
2023/05/31 09:23:54;;;;;;;6.90;6.40;;;23.80;90.00;;;;;;4957507;28;20420;-59
2023/05/31 09:26:21;;;;;;;6.63;6.03;;;23.90;90.00;;;;;;4957357;28;20471;-59
2023/05/31 09:28:54;;;;;;;6.60;6.00;;;24.00;88.80;;;;;;4956489;28;20964;-59
2023/05/31 09:31:20;;;;;;;8.47;6.93;;;24.10;86.10;;;;;;4956054;29;20808;-59
2023/05/31 09:33:48;;;;;;;7.90;7.10;;;24.30;85.90;;;;;;4956562;28;20409;-59
2023/05/31 09:36:30;;;;;;;7.10;6.40;;;24.40;85.90;;;;;;4956840;28;20417;-59
2023/05/31 09:39:08;;;;;;;7.10;6.50;;;24.50;85.60;;;;;;4957307;28;20882;-59
2023/05/31 09:41:34;;;;;;;6.97;6.37;;;24.50;86.80;;;;;;4956425;28;20463;-59
2023/05/31 09:44:00;;;;;;;7.67;6.93;;;24.60;83.30;;;;;;4956640;28;20472;-59
2023/05/31 09:46:26;;;;;;;9.03;6.90;;;24.60;81.60;;;;;;4956953;28;20472;-59
2023/05/31 09:49:03;;;;;;;7.90;7.30;;;24.70;84.00;;;;;;4956432;28;20405;-59
2023/05/31 09:51:33;;;;;;;8.13;7.40;;;24.80;80.10;;;;;;4956377;28;20548;-59
2023/05/31 09:54:11;;;;;;;6.90;6.30;;;24.80;80.70;;;;;;4957273;28;20452;-59
2023/05/31 09:56:38;;;;;;;7.40;6.80;;;24.80;83.00;;;;;;4956316;28;20460;-59
2023/05/31 09:59:05;;;;;;;8.67;5.60;;;24.80;80.20;;;;;;4956728;28;20417;-59
2023/05/31 10:01:35;;;;;;;6.20;5.70;;;24.90;76.70;;;;;;4956216;28;20496;-59
2023/05/31 10:04:03;;;;;;;5.17;4.77;;;24.90;80.60;;;;;;4956678;28;20427;-59
2023/05/31 10:06:34;;;;;;;7.50;6.90;;;25.00;80.30;;;;;;4956409;28;20816;-59
2023/05/31 10:09:07;;;;;;;5.43;5.13;;;25.20;79.00;;;;;;4955636;28;20400;-59
2023/05/31 10:11:37;;;;;;;6.37;5.77;;;25.30;78.20;;;;;;4956089;28;20397;-59
2023/05/31 10:14:28;;;;;;;7.40;6.80;;;25.30;79.60;;;;;;4956545;28;20433;-59
2023/05/31 10:16:56;;;;;;;6.53;5.53;;;25.40;74.40;;;;;;4944964;29;20433;-59
2023/05/31 10:19:24;;;;;;;6.00;5.07;;;25.30;73.30;;;;;;4956402;28;20839;-59
2023/05/31 10:21:50;;;;;;;5.33;4.90;;;25.40;74.60;;;;;;4955759;28;20808;-59
2023/05/31 10:24:41;;;;;;;6.13;5.63;;;25.40;73.70;;;;;;4956145;28;20392;-59
2023/05/31 10:27:25;;;;;;;5.97;5.43;;;25.50;70.70;;;;;;4956479;28;20843;-59
2023/05/31 10:29:56;;;;;;;6.40;5.90;;;25.60;66.20;;;;;;4955710;29;20672;-59
2023/05/31 10:32:32;;;;;;;5.90;5.40;;;25.60;66.50;;;;;;4956332;29;20417;-59
2023/05/31 10:34:58;;;;;;;6.67;4.73;;;25.50;66.00;;;;;;4956188;28;20406;-59
2023/05/31 10:37:25;;;;;;;7.77;4.83;;;25.50;67.40;;;;;;4955885;28;20423;-59
2023/05/31 10:40:15;;;;;;;8.53;7.83;;;25.50;61.50;;;;;;4955449;28;20916;-59
2023/05/31 10:42:56;;;;;;;7.10;6.60;;;25.50;64.30;;;;;;4955003;28;20431;-59
2023/05/31 10:45:30;;;;;;;5.30;4.90;;;25.60;65.80;;;;;;4952780;28;20497;-59
2023/05/31 10:48:17;;;;;;;4.90;4.50;;;25.70;62.00;;;;;;4946388;29;20459;-59
2023/05/31 10:50:58;;;;;;;5.43;4.93;;;25.70;62.60;;;;;;4943651;29;20404;-59
2023/05/31 10:53:29;;;;;;;6.23;4.87;;;25.80;63.90;;;;;;4943786;29;20413;-59
2023/05/31 10:56:05;;;;;;;6.10;4.80;;;26.00;67.20;;;;;;4946130;29;20435;-59
2023/05/31 10:58:36;;;;;;;8.73;6.63;;;25.90;60.40;;;;;;4946523;29;20401;-59
2023/05/31 11:01:08;;;;;;;4.50;3.57;;;26.00;65.90;;;;;;4944016;29;20475;-59
2023/05/31 11:03:51;;;;;;;7.00;6.40;;;26.00;62.00;;;;;;4946085;29;20417;-59
2023/05/31 11:06:27;;;;;;;5.43;4.97;;;26.00;61.60;;;;;;4946242;28;20448;-59
2023/05/31 11:09:09;;;;;;;7.40;7.00;;;26.10;60.80;;;;;;4945168;29;21059;-59
2023/05/31 11:11:41;;;;;;;5.00;4.50;;;26.10;60.20;;;;;;4945686;29;20401;-59
2023/05/31 11:14:31;;;;;;;6.60;6.10;;;26.00;59.00;;;;;;4945711;29;20434;-59
2023/05/31 11:16:59;;;;;;;6.47;5.50;;;26.10;62.40;;;;;;4943450;29;20405;-59
2023/05/31 11:19:36;;;;;;;6.47;5.87;;;26.20;64.30;;;;;;4945104;28;20427;-59
2023/05/31 11:22:15;;;;;;;4.53;4.23;;;26.40;63.10;;;;;;4943223;29;20422;-59
2023/05/31 11:24:51;;;;;;;6.20;5.50;;;26.40;58.70;;;;;;4942689;29;20413;-59
2023/05/31 11:27:22;;;;;;;4.67;4.27;;;26.30;59.10;;;;;;4943566;29;20464;-60
2023/05/31 11:29:51;;;;;;;4.93;4.47;;;26.30;60.40;;;;;;4950395;29;20808;-59
2023/05/31 11:32:20;;;;;;;4.80;4.40;;;26.40;61.30;;;;;;4944119;29;20765;-59
2023/05/31 11:35:02;;;;;;;5.67;4.47;;;26.50;61.60;;;;;;4933757;29;20422;-59
2023/05/31 11:37:32;;;;;;;5.97;5.47;;;26.70;59.60;;;;;;4935353;29;20428;-59
2023/05/31 11:40:16;;;;;;;5.13;4.60;;;26.90;62.70;;;;;;4934386;29;20422;-59
2023/05/31 11:42:44;;;;;;;5.37;5.07;;;26.90;60.60;;;;;;4934219;29;20421;-59
2023/05/31 11:45:17;;;;;;;4.87;4.47;;;26.90;60.80;;;;;;4935297;29;20506;-59
2023/05/31 11:48:07;;;;;;;5.50;4.93;;;26.90;59.90;;;;;;4934633;29;20459;-59
2023/05/31 11:50:33;;;;;;;4.10;3.77;;;26.80;57.30;;;;;;4934815;29;20401;-59
2023/05/31 11:53:06;;;;;;;4.17;3.80;;;26.70;59.40;;;;;;4934365;29;20488;-59
2023/05/31 11:55:32;;;;;;;5.00;4.70;;;26.70;58.40;;;;;;4935009;29;20481;-58
2023/05/31 11:57:59;;;;;;;5.53;5.03;;;26.60;58.40;;;;;;4935711;29;20405;-59
2023/05/31 12:00:25;;;;;;;5.50;5.20;;;26.40;57.80;;;;;;4953875;28;20419;-58
2023/05/31 12:02:53;;;;;;;5.37;4.90;;;26.20;58.80;;;;;;4947616;28;20420;-59
2023/05/31 12:05:19;;;;;;;5.03;4.53;;;26.20;62.80;;;;;;4946511;28;20438;-59
2023/05/31 12:07:46;;;;;;;6.03;5.10;;;26.20;58.50;;;;;;4946088;29;20461;-59
2023/05/31 12:10:15;;;;;;;5.93;4.90;;;26.10;60.90;;;;;;4942837;28;20405;-59
2023/05/31 12:12:41;;;;;;;4.70;4.30;;;26.20;61.20;;;;;;4953706;29;20432;-59
2023/05/31 12:15:08;;;;;;;4.67;4.30;;;26.30;63.00;;;;;;4954367;29;20958;-59
2023/05/31 12:17:34;;;;;;;5.47;5.03;;;26.50;63.50;;;;;;4954439;28;20260;-59
2023/05/31 12:20:00;;;;;;;7.00;6.27;;;26.50;60.30;;;;;;4953556;29;20467;-59
2023/05/31 12:22:26;;;;;;;14.30;12.90;;;26.60;63.10;;;;;;4953629;28;20536;-59
2023/05/31 12:24:56;;;;;;;4.90;4.60;;;26.70;60.60;;;;;;4942091;29;20746;-58
2023/05/31 12:27:24;;;;;;;4.63;4.33;;;26.80;59.70;;;;;;4944762;29;20457;-59
2023/05/31 12:29:55;;;;;;;6.83;4.60;;;26.80;58.90;;;;;;4942167;28;20177;-59
2023/05/31 12:32:21;;;;;;;5.70;5.20;;;26.80;58.40;;;;;;4936194;29;20410;-63
2023/05/31 12:34:47;;;;;;;5.30;4.90;;;26.60;57.10;;;;;;4938396;29;20432;-57
2023/05/31 12:37:13;;;;;;;6.43;5.10;;;26.50;58.50;;;;;;4939037;29;20416;-57
2023/05/31 12:39:39;;;;;;;4.97;4.67;;;26.40;60.20;;;;;;4940990;29;20871;-57